Rentchler, Illinois
Current Conditions -  °F | °C
As of 2:48 PM on Monday 22 Dec 2014 (Local Time) from KBLV Reporting Station
Light Rain Light Rain  
Wind Chill:   Ceiling: 700
Heat Index:   Visibility: 6mi
Dew Point:   Wind: 9mph
Humidity: 100%   Direction: 120°ESE
Pressure: 29.58"   Gusts: NA
Location:  38.5093°N, 89.8955°W
Report Text: KBLV 222048Z AUTO 12008KT 6SM -RA BR OVC007 09/09 A2958 RMK AO2 CIG 007V009
Loading
Personal Weather Stations






























Interactive Weather Map New forecast layout! Learn more

10-Day Weather Forecast

Advertisements
Track Severe Weather on mobile